Gloversville, New York
Current Conditions -  °F | °C
As of 12:10 AM on Sunday 21 Dec 2014 (Local Time) from KNY0 Reporting Station
Overcast Overcast  
Wind Chill: -5°   Ceiling: 2500
Heat Index: -5°   Visibility: 10mi
Dew Point: -8°   Wind: 0mph
Humidity: 83%   Direction: NA
Pressure: 30.26"   Gusts: NA
Location:  43.06°N, 74.34°W
Report Text: KNY0 210510Z AUTO 00000KT 10SM OVC025 M05/M07 A3026 RMK AO2 T10501075
Loading
Personal Weather Stations






























Interactive Weather Map New forecast layout! Learn more

10-Day Weather Forecast

Advertisements
Track Severe Weather on mobile